sensor_id;sensor_type;location;lat;lon;timestamp;P1;durP1;ratioP1;P2;durP2;ratioP2
64915;SDS011;51427;-27.442;153.014;2023-04-16T00:00:29;3.80;;;1.40;;
64915;SDS011;51427;-27.442;153.014;2023-04-16T00:02:57;3.13;;;0.80;;
64915;SDS011;51427;-27.442;153.014;2023-04-16T00:05:25;4.50;;;0.65;;
64915;SDS011;51427;-27.442;153.014;2023-04-16T00:07:52;1.38;;;0.85;;
64915;SDS011;51427;-27.442;153.014;2023-04-16T00:10:20;3.20;;;1.13;;
64915;SDS011;51427;-27.442;153.014;2023-04-16T00:12:47;4.00;;;0.60;;
64915;SDS011;51427;-27.442;153.014;2023-04-16T00:15:15;3.42;;;1.45;;
64915;SDS011;51427;-27.442;153.014;2023-04-16T00:17:43;6.00;;;1.00;;
64915;SDS011;51427;-27.442;153.014;2023-04-16T00:20:10;1.20;;;0.50;;
64915;SDS011;51427;-27.442;153.014;2023-04-16T00:22:38;2.20;;;0.60;;
64915;SDS011;51427;-27.442;153.014;2023-04-16T00:25:05;3.22;;;0.80;;
64915;SDS011;51427;-27.442;153.014;2023-04-16T00:27:33;2.70;;;0.90;;
64915;SDS011;51427;-27.442;153.014;2023-04-16T00:30:01;3.95;;;0.95;;
64915;SDS011;51427;-27.442;153.014;2023-04-16T00:32:29;4.13;;;0.70;;
64915;SDS011;51427;-27.442;153.014;2023-04-16T00:34:56;3.55;;;0.68;;
64915;SDS011;51427;-27.442;153.014;2023-04-16T00:37:24;3.33;;;0.90;;
64915;SDS011;51427;-27.442;153.014;2023-04-16T00:39:52;2.25;;;0.70;;
64915;SDS011;51427;-27.442;153.014;2023-04-16T00:42:20;2.05;;;0.70;;
64915;SDS011;51427;-27.442;153.014;2023-04-16T00:44:47;2.33;;;0.60;;
64915;SDS011;51427;-27.442;153.014;2023-04-16T00:47:15;2.38;;;0.65;;
64915;SDS011;51427;-27.442;153.014;2023-04-16T00:49:44;2.53;;;0.73;;
64915;SDS011;51427;-27.442;153.014;2023-04-16T00:52:12;1.92;;;0.73;;
64915;SDS011;51427;-27.442;153.014;2023-04-16T00:54:39;1.52;;;0.50;;
64915;SDS011;51427;-27.442;153.014;2023-04-16T00:57:07;5.18;;;0.82;;
64915;SDS011;51427;-27.442;153.014;2023-04-16T00:59:35;0.90;;;0.35;;
64915;SDS011;51427;-27.442;153.014;2023-04-16T01:02:03;2.95;;;0.98;;
64915;SDS011;51427;-27.442;153.014;2023-04-16T01:04:31;1.85;;;0.60;;
64915;SDS011;51427;-27.442;153.014;2023-04-16T01:06:58;5.75;;;0.80;;
64915;SDS011;51427;-27.442;153.014;2023-04-16T01:09:26;1.63;;;0.50;;
64915;SDS011;51427;-27.442;153.014;2023-04-16T01:11:54;2.08;;;0.70;;
64915;SDS011;51427;-27.442;153.014;2023-04-16T01:14:21;2.78;;;0.82;;
64915;SDS011;51427;-27.442;153.014;2023-04-16T01:16:49;1.75;;;0.75;;
64915;SDS011;51427;-27.442;153.014;2023-04-16T01:19:16;1.05;;;0.50;;
64915;SDS011;51427;-27.442;153.014;2023-04-16T01:21:44;2.42;;;0.90;;
64915;SDS011;51427;-27.442;153.014;2023-04-16T01:24:12;3.00;;;0.80;;
64915;SDS011;51427;-27.442;153.014;2023-04-16T01:26:39;1.45;;;0.85;;
64915;SDS011;51427;-27.442;153.014;2023-04-16T01:29:07;4.10;;;1.45;;
64915;SDS011;51427;-27.442;153.014;2023-04-16T01:31:34;2.55;;;0.98;;
64915;SDS011;51427;-27.442;153.014;2023-04-16T01:34:02;1.15;;;0.70;;
64915;SDS011;51427;-27.442;153.014;2023-04-16T01:36:29;1.95;;;0.70;;
64915;SDS011;51427;-27.442;153.014;2023-04-16T01:38:57;1.10;;;0.70;;
64915;SDS011;51427;-27.442;153.014;2023-04-16T01:41:25;2.17;;;0.75;;
64915;SDS011;51427;-27.442;153.014;2023-04-16T01:43:52;3.22;;;0.80;;
64915;SDS011;51427;-27.442;153.014;2023-04-16T01:46:22;2.80;;;1.02;;
64915;SDS011;51427;-27.442;153.014;2023-04-16T01:51:23;4.22;;;1.00;;
64915;SDS011;51427;-27.442;153.014;2023-04-16T01:53:52;3.13;;;1.00;;
64915;SDS011;51427;-27.442;153.014;2023-04-16T01:56:20;2.55;;;1.08;;
64915;SDS011;51427;-27.442;153.014;2023-04-16T01:58:47;2.97;;;0.95;;
64915;SDS011;51427;-27.442;153.014;2023-04-16T02:01:15;3.58;;;0.77;;
64915;SDS011;51427;-27.442;153.014;2023-04-16T02:03:43;3.95;;;1.25;;
64915;SDS011;51427;-27.442;153.014;2023-04-16T02:06:10;2.08;;;0.80;;
64915;SDS011;51427;-27.442;153.014;2023-04-16T02:08:38;3.15;;;1.20;;
64915;SDS011;51427;-27.442;153.014;2023-04-16T02:11:06;2.38;;;0.95;;
64915;SDS011;51427;-27.442;153.014;2023-04-16T02:13:34;2.35;;;0.98;;
64915;SDS011;51427;-27.442;153.014;2023-04-16T02:16:01;3.13;;;0.95;;
64915;SDS011;51427;-27.442;153.014;2023-04-16T02:18:29;4.15;;;0.80;;
64915;SDS011;51427;-27.442;153.014;2023-04-16T02:20:57;2.80;;;1.08;;
64915;SDS011;51427;-27.442;153.014;2023-04-16T02:23:25;2.20;;;0.80;;
64915;SDS011;51427;-27.442;153.014;2023-04-16T02:25:52;2.78;;;1.08;;
64915;SDS011;51427;-27.442;153.014;2023-04-16T02:28:20;2.05;;;0.70;;
64915;SDS011;51427;-27.442;153.014;2023-04-16T02:30:48;2.45;;;1.02;;
64915;SDS011;51427;-27.442;153.014;2023-04-16T02:33:15;1.90;;;0.73;;
64915;SDS011;51427;-27.442;153.014;2023-04-16T02:35:43;2.80;;;1.00;;
64915;SDS011;51427;-27.442;153.014;2023-04-16T02:38:10;4.25;;;1.20;;
64915;SDS011;51427;-27.442;153.014;2023-04-16T02:40:38;2.25;;;0.95;;
64915;SDS011;51427;-27.442;153.014;2023-04-16T02:43:06;2.75;;;0.68;;
64915;SDS011;51427;-27.442;153.014;2023-04-16T02:45:33;4.22;;;0.95;;
64915;SDS011;51427;-27.442;153.014;2023-04-16T02:48:01;3.38;;;0.85;;
64915;SDS011;51427;-27.442;153.014;2023-04-16T02:50:28;4.28;;;1.00;;
64915;SDS011;51427;-27.442;153.014;2023-04-16T02:52:56;5.22;;;0.95;;
64915;SDS011;51427;-27.442;153.014;2023-04-16T02:55:23;4.05;;;0.90;;
64915;SDS011;51427;-27.442;153.014;2023-04-16T02:57:51;3.70;;;1.00;;
64915;SDS011;51427;-27.442;153.014;2023-04-16T03:00:19;1.60;;;0.75;;
64915;SDS011;51427;-27.442;153.014;2023-04-16T03:02:46;3.00;;;0.90;;
64915;SDS011;51427;-27.442;153.014;2023-04-16T03:05:14;2.05;;;0.68;;
64915;SDS011;51427;-27.442;153.014;2023-04-16T03:07:42;3.33;;;0.57;;
64915;SDS011;51427;-27.442;153.014;2023-04-16T03:10:10;2.13;;;0.70;;
64915;SDS011;51427;-27.442;153.014;2023-04-16T03:12:38;1.52;;;0.52;;
64915;SDS011;51427;-27.442;153.014;2023-04-16T03:15:06;2.15;;;0.77;;
64915;SDS011;51427;-27.442;153.014;2023-04-16T03:17:34;6.60;;;0.63;;
64915;SDS011;51427;-27.442;153.014;2023-04-16T03:20:01;4.68;;;1.13;;
64915;SDS011;51427;-27.442;153.014;2023-04-16T03:22:29;3.65;;;0.90;;
64915;SDS011;51427;-27.442;153.014;2023-04-16T03:24:57;4.88;;;0.93;;
64915;SDS011;51427;-27.442;153.014;2023-04-16T03:27:24;1.90;;;0.93;;
64915;SDS011;51427;-27.442;153.014;2023-04-16T03:29:52;1.45;;;0.70;;
64915;SDS011;51427;-27.442;153.014;2023-04-16T03:32:20;1.58;;;0.90;;
64915;SDS011;51427;-27.442;153.014;2023-04-16T03:34:47;1.58;;;0.70;;
64915;SDS011;51427;-27.442;153.014;2023-04-16T03:37:15;1.90;;;0.77;;
64915;SDS011;51427;-27.442;153.014;2023-04-16T03:39:43;6.30;;;0.82;;
64915;SDS011;51427;-27.442;153.014;2023-04-16T03:42:11;3.53;;;0.68;;
64915;SDS011;51427;-27.442;153.014;2023-04-16T03:44:38;1.65;;;0.85;;
64915;SDS011;51427;-27.442;153.014;2023-04-16T03:47:06;5.93;;;1.15;;
64915;SDS011;51427;-27.442;153.014;2023-04-16T03:49:33;1.85;;;0.80;;
64915;SDS011;51427;-27.442;153.014;2023-04-16T03:52:01;4.47;;;0.80;;
64915;SDS011;51427;-27.442;153.014;2023-04-16T03:54:28;3.53;;;0.65;;
64915;SDS011;51427;-27.442;153.014;2023-04-16T03:56:56;1.02;;;0.50;;
64915;SDS011;51427;-27.442;153.014;2023-04-16T03:59:23;3.33;;;0.90;;
64915;SDS011;51427;-27.442;153.014;2023-04-16T04:01:51;4.22;;;0.63;;
64915;SDS011;51427;-27.442;153.014;2023-04-16T04:04:19;3.53;;;0.70;;
64915;SDS011;51427;-27.442;153.014;2023-04-16T04:06:46;0.77;;;0.50;;
64915;SDS011;51427;-27.442;153.014;2023-04-16T04:09:14;1.27;;;0.70;;
64915;SDS011;51427;-27.442;153.014;2023-04-16T04:11:42;1.50;;;0.50;;
64915;SDS011;51427;-27.442;153.014;2023-04-16T04:14:09;1.05;;;0.57;;
64915;SDS011;51427;-27.442;153.014;2023-04-16T04:16:37;2.53;;;0.60;;
64915;SDS011;51427;-27.442;153.014;2023-04-16T04:19:04;3.85;;;0.68;;
64915;SDS011;51427;-27.442;153.014;2023-04-16T04:21:32;2.28;;;0.82;;
64915;SDS011;51427;-27.442;153.014;2023-04-16T04:24:00;2.67;;;0.57;;
64915;SDS011;51427;-27.442;153.014;2023-04-16T04:26:28;6.38;;;0.73;;
64915;SDS011;51427;-27.442;153.014;2023-04-16T04:28:55;2.42;;;0.68;;
64915;SDS011;51427;-27.442;153.014;2023-04-16T04:31:23;3.40;;;0.60;;
64915;SDS011;51427;-27.442;153.014;2023-04-16T04:33:50;2.05;;;0.80;;
64915;SDS011;51427;-27.442;153.014;2023-04-16T04:36:18;7.85;;;1.63;;
64915;SDS011;51427;-27.442;153.014;2023-04-16T04:38:46;4.25;;;0.93;;
64915;SDS011;51427;-27.442;153.014;2023-04-16T04:41:13;2.17;;;0.80;;
64915;SDS011;51427;-27.442;153.014;2023-04-16T04:43:41;2.85;;;0.85;;
64915;SDS011;51427;-27.442;153.014;2023-04-16T04:46:09;3.17;;;0.73;;
64915;SDS011;51427;-27.442;153.014;2023-04-16T04:48:36;1.45;;;0.40;;
64915;SDS011;51427;-27.442;153.014;2023-04-16T04:51:04;1.88;;;0.70;;
64915;SDS011;51427;-27.442;153.014;2023-04-16T04:53:31;2.20;;;0.82;;
64915;SDS011;51427;-27.442;153.014;2023-04-16T04:55:59;3.83;;;0.75;;
64915;SDS011;51427;-27.442;153.014;2023-04-16T04:58:26;7.80;;;1.45;;
64915;SDS011;51427;-27.442;153.014;2023-04-16T05:00:54;3.28;;;0.50;;
64915;SDS011;51427;-27.442;153.014;2023-04-16T05:03:22;1.02;;;0.63;;
64915;SDS011;51427;-27.442;153.014;2023-04-16T05:05:49;3.95;;;0.98;;
64915;SDS011;51427;-27.442;153.014;2023-04-16T05:08:17;2.30;;;0.70;;
64915;SDS011;51427;-27.442;153.014;2023-04-16T05:10:44;1.90;;;0.55;;
64915;SDS011;51427;-27.442;153.014;2023-04-16T05:13:12;2.75;;;0.68;;
64915;SDS011;51427;-27.442;153.014;2023-04-16T05:15:39;2.90;;;0.88;;
64915;SDS011;51427;-27.442;153.014;2023-04-16T05:18:07;2.42;;;0.90;;
64915;SDS011;51427;-27.442;153.014;2023-04-16T05:20:35;0.77;;;0.47;;
64915;SDS011;51427;-27.442;153.014;2023-04-16T05:23:02;3.58;;;0.73;;
64915;SDS011;51427;-27.442;153.014;2023-04-16T05:25:30;1.27;;;0.40;;
64915;SDS011;51427;-27.442;153.014;2023-04-16T05:27:58;3.97;;;0.70;;
64915;SDS011;51427;-27.442;153.014;2023-04-16T05:30:26;2.10;;;0.60;;
64915;SDS011;51427;-27.442;153.014;2023-04-16T05:32:54;2.83;;;0.60;;
64915;SDS011;51427;-27.442;153.014;2023-04-16T05:35:22;3.50;;;0.60;;
64915;SDS011;51427;-27.442;153.014;2023-04-16T05:37:49;3.25;;;0.50;;
64915;SDS011;51427;-27.442;153.014;2023-04-16T05:40:17;3.80;;;0.52;;
64915;SDS011;51427;-27.442;153.014;2023-04-16T05:42:44;2.47;;;0.50;;
64915;SDS011;51427;-27.442;153.014;2023-04-16T05:45:12;4.95;;;0.75;;
64915;SDS011;51427;-27.442;153.014;2023-04-16T05:47:39;3.55;;;0.60;;
64915;SDS011;51427;-27.442;153.014;2023-04-16T05:50:07;4.50;;;0.70;;
64915;SDS011;51427;-27.442;153.014;2023-04-16T05:52:35;1.73;;;0.50;;
64915;SDS011;51427;-27.442;153.014;2023-04-16T05:55:04;3.53;;;0.73;;
64915;SDS011;51427;-27.442;153.014;2023-04-16T05:57:32;4.10;;;1.20;;
64915;SDS011;51427;-27.442;153.014;2023-04-16T05:59:59;2.30;;;0.55;;
64915;SDS011;51427;-27.442;153.014;2023-04-16T06:02:27;2.88;;;0.65;;
64915;SDS011;51427;-27.442;153.014;2023-04-16T06:04:56;1.33;;;0.47;;
64915;SDS011;51427;-27.442;153.014;2023-04-16T06:07:23;3.30;;;1.05;;
64915;SDS011;51427;-27.442;153.014;2023-04-16T06:09:51;3.10;;;0.93;;
64915;SDS011;51427;-27.442;153.014;2023-04-16T06:12:18;2.15;;;0.60;;
64915;SDS011;51427;-27.442;153.014;2023-04-16T06:14:46;2.70;;;0.77;;
64915;SDS011;51427;-27.442;153.014;2023-04-16T06:17:14;2.50;;;0.70;;
64915;SDS011;51427;-27.442;153.014;2023-04-16T06:19:41;2.28;;;0.57;;
64915;SDS011;51427;-27.442;153.014;2023-04-16T06:22:09;3.83;;;0.70;;
64915;SDS011;51427;-27.442;153.014;2023-04-16T06:24:36;1.10;;;0.50;;
64915;SDS011;51427;-27.442;153.014;2023-04-16T06:27:04;7.20;;;0.80;;
64915;SDS011;51427;-27.442;153.014;2023-04-16T06:29:31;1.75;;;0.55;;
64915;SDS011;51427;-27.442;153.014;2023-04-16T06:31:59;4.75;;;0.85;;
64915;SDS011;51427;-27.442;153.014;2023-04-16T06:34:28;2.70;;;0.50;;
64915;SDS011;51427;-27.442;153.014;2023-04-16T06:36:56;4.10;;;0.90;;
64915;SDS011;51427;-27.442;153.014;2023-04-16T06:39:23;2.75;;;0.63;;
64915;SDS011;51427;-27.442;153.014;2023-04-16T06:41:51;1.55;;;0.65;;
64915;SDS011;51427;-27.442;153.014;2023-04-16T06:44:18;1.67;;;0.40;;
64915;SDS011;51427;-27.442;153.014;2023-04-16T06:46:46;2.90;;;0.60;;
64915;SDS011;51427;-27.442;153.014;2023-04-16T06:49:16;1.10;;;0.40;;
64915;SDS011;51427;-27.442;153.014;2023-04-16T06:51:44;2.80;;;0.60;;
64915;SDS011;51427;-27.442;153.014;2023-04-16T06:54:11;2.60;;;0.80;;
64915;SDS011;51427;-27.442;153.014;2023-04-16T06:56:39;2.15;;;0.40;;
64915;SDS011;51427;-27.442;153.014;2023-04-16T06:59:07;3.17;;;0.60;;
64915;SDS011;51427;-27.442;153.014;2023-04-16T07:01:34;1.52;;;0.35;;
64915;SDS011;51427;-27.442;153.014;2023-04-16T07:04:02;2.15;;;0.60;;
64915;SDS011;51427;-27.442;153.014;2023-04-16T07:06:30;3.45;;;0.70;;
64915;SDS011;51427;-27.442;153.014;2023-04-16T07:08:57;2.58;;;0.85;;
64915;SDS011;51427;-27.442;153.014;2023-04-16T07:11:25;1.40;;;0.40;;
64915;SDS011;51427;-27.442;153.014;2023-04-16T07:13:53;1.10;;;0.55;;
64915;SDS011;51427;-27.442;153.014;2023-04-16T07:16:22;2.85;;;0.60;;
64915;SDS011;51427;-27.442;153.014;2023-04-16T07:18:50;1.95;;;0.50;;
64915;SDS011;51427;-27.442;153.014;2023-04-16T07:21:17;2.25;;;0.90;;
64915;SDS011;51427;-27.442;153.014;2023-04-16T07:23:45;4.57;;;0.75;;
64915;SDS011;51427;-27.442;153.014;2023-04-16T07:26:13;2.25;;;0.65;;
64915;SDS011;51427;-27.442;153.014;2023-04-16T07:28:41;1.75;;;0.40;;
64915;SDS011;51427;-27.442;153.014;2023-04-16T07:31:08;3.72;;;0.80;;
64915;SDS011;51427;-27.442;153.014;2023-04-16T07:33:36;2.47;;;0.52;;
64915;SDS011;51427;-27.442;153.014;2023-04-16T07:36:03;1.92;;;0.63;;
64915;SDS011;51427;-27.442;153.014;2023-04-16T07:38:31;3.13;;;0.63;;
64915;SDS011;51427;-27.442;153.014;2023-04-16T07:40:59;3.72;;;0.50;;
64915;SDS011;51427;-27.442;153.014;2023-04-16T07:43:27;1.88;;;0.95;;
64915;SDS011;51427;-27.442;153.014;2023-04-16T07:45:54;1.83;;;0.43;;
64915;SDS011;51427;-27.442;153.014;2023-04-16T07:48:22;2.28;;;0.60;;
64915;SDS011;51427;-27.442;153.014;2023-04-16T07:50:50;3.13;;;0.50;;
64915;SDS011;51427;-27.442;153.014;2023-04-16T07:53:17;1.83;;;0.50;;
64915;SDS011;51427;-27.442;153.014;2023-04-16T07:55:45;3.03;;;0.80;;
64915;SDS011;51427;-27.442;153.014;2023-04-16T07:58:13;2.88;;;0.73;;
64915;SDS011;51427;-27.442;153.014;2023-04-16T08:00:42;2.17;;;0.73;;
64915;SDS011;51427;-27.442;153.014;2023-04-16T08:03:10;4.28;;;0.70;;
64915;SDS011;51427;-27.442;153.014;2023-04-16T08:05:38;3.53;;;0.57;;
64915;SDS011;51427;-27.442;153.014;2023-04-16T08:08:05;2.65;;;0.75;;
64915;SDS011;51427;-27.442;153.014;2023-04-16T08:10:33;6.07;;;0.68;;
64915;SDS011;51427;-27.442;153.014;2023-04-16T08:13:01;3.05;;;0.80;;
64915;SDS011;51427;-27.442;153.014;2023-04-16T08:15:34;4.75;;;1.25;;
64915;SDS011;51427;-27.442;153.014;2023-04-16T08:18:02;4.18;;;1.20;;
64915;SDS011;51427;-27.442;153.014;2023-04-16T08:20:31;3.83;;;1.10;;
64915;SDS011;51427;-27.442;153.014;2023-04-16T08:22:59;2.60;;;1.00;;
64915;SDS011;51427;-27.442;153.014;2023-04-16T08:25:26;2.30;;;0.75;;
64915;SDS011;51427;-27.442;153.014;2023-04-16T08:27:54;5.97;;;1.23;;
64915;SDS011;51427;-27.442;153.014;2023-04-16T08:30:22;3.95;;;1.00;;
64915;SDS011;51427;-27.442;153.014;2023-04-16T08:32:49;5.70;;;1.00;;
64915;SDS011;51427;-27.442;153.014;2023-04-16T08:35:17;4.20;;;1.48;;
64915;SDS011;51427;-27.442;153.014;2023-04-16T08:37:45;4.93;;;1.23;;
64915;SDS011;51427;-27.442;153.014;2023-04-16T08:40:12;4.35;;;0.93;;
64915;SDS011;51427;-27.442;153.014;2023-04-16T08:42:44;2.50;;;1.10;;
64915;SDS011;51427;-27.442;153.014;2023-04-16T08:45:17;3.40;;;1.10;;
64915;SDS011;51427;-27.442;153.014;2023-04-16T08:47:45;5.70;;;0.90;;
64915;SDS011;51427;-27.442;153.014;2023-04-16T08:50:15;4.00;;;1.20;;
64915;SDS011;51427;-27.442;153.014;2023-04-16T08:52:57;2.45;;;1.00;;
64915;SDS011;51427;-27.442;153.014;2023-04-16T08:58:13;3.85;;;1.10;;
64915;SDS011;51427;-27.442;153.014;2023-04-16T09:00:42;4.10;;;1.52;;
64915;SDS011;51427;-27.442;153.014;2023-04-16T09:03:11;3.45;;;0.95;;
64915;SDS011;51427;-27.442;153.014;2023-04-16T09:05:39;5.93;;;1.20;;
64915;SDS011;51427;-27.442;153.014;2023-04-16T09:08:09;2.03;;;0.80;;
64915;SDS011;51427;-27.442;153.014;2023-04-16T09:10:36;1.98;;;1.00;;
64915;SDS011;51427;-27.442;153.014;2023-04-16T09:13:04;3.22;;;1.15;;
64915;SDS011;51427;-27.442;153.014;2023-04-16T09:15:34;7.60;;;3.05;;
64915;SDS011;51427;-27.442;153.014;2023-04-16T09:18:01;2.55;;;0.93;;
64915;SDS011;51427;-27.442;153.014;2023-04-16T09:20:29;2.40;;;1.10;;
64915;SDS011;51427;-27.442;153.014;2023-04-16T09:22:57;2.45;;;0.85;;
64915;SDS011;51427;-27.442;153.014;2023-04-16T09:25:24;4.75;;;1.65;;
64915;SDS011;51427;-27.442;153.014;2023-04-16T09:27:52;6.20;;;2.83;;
64915;SDS011;51427;-27.442;153.014;2023-04-16T09:30:26;3.63;;;1.40;;
64915;SDS011;51427;-27.442;153.014;2023-04-16T09:35:47;4.10;;;1.30;;
64915;SDS011;51427;-27.442;153.014;2023-04-16T09:38:16;4.57;;;0.95;;
64915;SDS011;51427;-27.442;153.014;2023-04-16T09:40:44;6.70;;;2.30;;
64915;SDS011;51427;-27.442;153.014;2023-04-16T09:43:16;2.97;;;1.20;;
64915;SDS011;51427;-27.442;153.014;2023-04-16T09:45:48;2.28;;;1.42;;
64915;SDS011;51427;-27.442;153.014;2023-04-16T09:48:27;5.00;;;2.22;;
64915;SDS011;51427;-27.442;153.014;2023-04-16T09:50:59;4.50;;;1.30;;
64915;SDS011;51427;-27.442;153.014;2023-04-16T09:53:28;1.45;;;0.85;;
64915;SDS011;51427;-27.442;153.014;2023-04-16T09:56:00;4.25;;;1.10;;
64915;SDS011;51427;-27.442;153.014;2023-04-16T09:58:30;7.20;;;1.58;;
64915;SDS011;51427;-27.442;153.014;2023-04-16T10:01:02;3.22;;;0.95;;
64915;SDS011;51427;-27.442;153.014;2023-04-16T10:03:37;4.00;;;1.27;;
64915;SDS011;51427;-27.442;153.014;2023-04-16T10:08:46;5.53;;;1.20;;
64915;SDS011;51427;-27.442;153.014;2023-04-16T10:11:18;7.30;;;1.17;;
64915;SDS011;51427;-27.442;153.014;2023-04-16T10:13:47;4.68;;;1.50;;
64915;SDS011;51427;-27.442;153.014;2023-04-16T10:16:15;3.05;;;1.48;;
64915;SDS011;51427;-27.442;153.014;2023-04-16T10:18:44;6.15;;;1.50;;
64915;SDS011;51427;-27.442;153.014;2023-04-16T10:21:12;2.30;;;1.00;;
64915;SDS011;51427;-27.442;153.014;2023-04-16T10:23:41;2.78;;;1.00;;
64915;SDS011;51427;-27.442;153.014;2023-04-16T10:26:09;3.40;;;0.85;;
64915;SDS011;51427;-27.442;153.014;2023-04-16T10:28:37;2.55;;;0.90;;
64915;SDS011;51427;-27.442;153.014;2023-04-16T10:31:06;3.70;;;1.40;;
64915;SDS011;51427;-27.442;153.014;2023-04-16T10:33:35;8.93;;;1.05;;
64915;SDS011;51427;-27.442;153.014;2023-04-16T10:36:07;4.75;;;1.08;;
64915;SDS011;51427;-27.442;153.014;2023-04-16T10:38:40;7.40;;;1.20;;
64915;SDS011;51427;-27.442;153.014;2023-04-16T10:41:12;3.03;;;0.60;;
64915;SDS011;51427;-27.442;153.014;2023-04-16T10:43:43;1.67;;;0.80;;
64915;SDS011;51427;-27.442;153.014;2023-04-16T10:46:21;2.92;;;1.30;;
64915;SDS011;51427;-27.442;153.014;2023-04-16T10:48:59;4.75;;;1.05;;
64915;SDS011;51427;-27.442;153.014;2023-04-16T10:51:29;5.03;;;1.58;;
64915;SDS011;51427;-27.442;153.014;2023-04-16T10:56:42;3.03;;;0.60;;
64915;SDS011;51427;-27.442;153.014;2023-04-16T10:59:11;3.03;;;0.88;;
64915;SDS011;51427;-27.442;153.014;2023-04-16T11:01:43;2.50;;;0.85;;
64915;SDS011;51427;-27.442;153.014;2023-04-16T11:06:59;3.28;;;1.45;;
64915;SDS011;51427;-27.442;153.014;2023-04-16T11:12:32;4.78;;;0.98;;
64915;SDS011;51427;-27.442;153.014;2023-04-16T11:15:03;2.90;;;1.10;;
64915;SDS011;51427;-27.442;153.014;2023-04-16T11:17:41;6.38;;;1.15;;
64915;SDS011;51427;-27.442;153.014;2023-04-16T11:20:20;4.22;;;1.23;;
64915;SDS011;51427;-27.442;153.014;2023-04-16T11:22:50;4.15;;;1.50;;
64915;SDS011;51427;-27.442;153.014;2023-04-16T11:25:19;4.45;;;1.92;;
64915;SDS011;51427;-27.442;153.014;2023-04-16T11:27:58;4.13;;;0.98;;
64915;SDS011;51427;-27.442;153.014;2023-04-16T11:30:29;2.60;;;0.90;;
64915;SDS011;51427;-27.442;153.014;2023-04-16T11:33:01;1.55;;;0.80;;
64915;SDS011;51427;-27.442;153.014;2023-04-16T11:35:30;1.63;;;0.90;;
64915;SDS011;51427;-27.442;153.014;2023-04-16T11:37:57;4.07;;;1.70;;
64915;SDS011;51427;-27.442;153.014;2023-04-16T11:40:28;3.75;;;1.10;;
64915;SDS011;51427;-27.442;153.014;2023-04-16T11:43:17;2.25;;;1.05;;
64915;SDS011;51427;-27.442;153.014;2023-04-16T11:45:57;2.50;;;1.40;;
64915;SDS011;51427;-27.442;153.014;2023-04-16T11:48:44;4.30;;;1.70;;
64915;SDS011;51427;-27.442;153.014;2023-04-16T11:51:15;2.63;;;1.40;;
64915;SDS011;51427;-27.442;153.014;2023-04-16T11:53:47;5.80;;;1.83;;
64915;SDS011;51427;-27.442;153.014;2023-04-16T11:56:29;2.78;;;1.70;;
64915;SDS011;51427;-27.442;153.014;2023-04-16T11:59:08;5.35;;;2.13;;
64915;SDS011;51427;-27.442;153.014;2023-04-16T12:01:37;3.80;;;1.70;;
64915;SDS011;51427;-27.442;153.014;2023-04-16T12:04:07;2.08;;;0.93;;
64915;SDS011;51427;-27.442;153.014;2023-04-16T12:06:34;1.92;;;1.23;;
64915;SDS011;51427;-27.442;153.014;2023-04-16T12:11:49;4.50;;;2.15;;
64915;SDS011;51427;-27.442;153.014;2023-04-16T12:14:16;8.55;;;2.95;;
64915;SDS011;51427;-27.442;153.014;2023-04-16T12:16:44;4.45;;;2.50;;
64915;SDS011;51427;-27.442;153.014;2023-04-16T12:19:12;6.38;;;2.30;;
64915;SDS011;51427;-27.442;153.014;2023-04-16T12:24:12;8.15;;;2.47;;
64915;SDS011;51427;-27.442;153.014;2023-04-16T12:26:52;3.08;;;1.48;;
64915;SDS011;51427;-27.442;153.014;2023-04-16T12:29:27;3.90;;;1.45;;
64915;SDS011;51427;-27.442;153.014;2023-04-16T12:31:56;4.05;;;1.70;;
64915;SDS011;51427;-27.442;153.014;2023-04-16T12:34:24;2.35;;;1.55;;
64915;SDS011;51427;-27.442;153.014;2023-04-16T12:37:06;5.80;;;2.30;;
64915;SDS011;51427;-27.442;153.014;2023-04-16T12:39:37;5.75;;;1.85;;
64915;SDS011;51427;-27.442;153.014;2023-04-16T12:42:05;3.10;;;1.58;;
64915;SDS011;51427;-27.442;153.014;2023-04-16T12:44:35;2.97;;;1.40;;
64915;SDS011;51427;-27.442;153.014;2023-04-16T12:47:03;3.88;;;1.45;;
64915;SDS011;51427;-27.442;153.014;2023-04-16T12:49:31;3.53;;;1.35;;
64915;SDS011;51427;-27.442;153.014;2023-04-16T12:51:59;2.33;;;1.08;;
64915;SDS011;51427;-27.442;153.014;2023-04-16T12:54:27;4.72;;;1.52;;
64915;SDS011;51427;-27.442;153.014;2023-04-16T12:56:56;7.30;;;2.05;;
64915;SDS011;51427;-27.442;153.014;2023-04-16T12:59:23;4.25;;;2.28;;
64915;SDS011;51427;-27.442;153.014;2023-04-16T13:01:51;5.25;;;2.67;;
64915;SDS011;51427;-27.442;153.014;2023-04-16T13:04:19;3.60;;;1.90;;
64915;SDS011;51427;-27.442;153.014;2023-04-16T13:06:46;4.05;;;1.58;;
64915;SDS011;51427;-27.442;153.014;2023-04-16T13:09:14;3.17;;;1.30;;
64915;SDS011;51427;-27.442;153.014;2023-04-16T13:11:42;3.47;;;1.17;;
64915;SDS011;51427;-27.442;153.014;2023-04-16T13:14:10;3.90;;;1.25;;
64915;SDS011;51427;-27.442;153.014;2023-04-16T13:16:38;3.35;;;0.90;;
64915;SDS011;51427;-27.442;153.014;2023-04-16T13:19:05;5.63;;;1.40;;
64915;SDS011;51427;-27.442;153.014;2023-04-16T13:21:33;5.70;;;2.05;;
64915;SDS011;51427;-27.442;153.014;2023-04-16T13:24:01;4.53;;;1.25;;
64915;SDS011;51427;-27.442;153.014;2023-04-16T13:26:28;5.30;;;1.58;;
64915;SDS011;51427;-27.442;153.014;2023-04-16T13:28:56;6.95;;;2.72;;
64915;SDS011;51427;-27.442;153.014;2023-04-16T13:31:24;4.95;;;2.70;;
64915;SDS011;51427;-27.442;153.014;2023-04-16T13:33:52;8.57;;;2.50;;
64915;SDS011;51427;-27.442;153.014;2023-04-16T13:36:19;5.55;;;2.60;;
64915;SDS011;51427;-27.442;153.014;2023-04-16T13:38:47;7.43;;;2.55;;
64915;SDS011;51427;-27.442;153.014;2023-04-16T13:41:15;4.43;;;1.80;;
64915;SDS011;51427;-27.442;153.014;2023-04-16T13:43:43;3.80;;;1.90;;
64915;SDS011;51427;-27.442;153.014;2023-04-16T13:46:10;5.82;;;2.15;;
64915;SDS011;51427;-27.442;153.014;2023-04-16T13:48:38;3.70;;;1.70;;
64915;SDS011;51427;-27.442;153.014;2023-04-16T13:51:05;9.15;;;2.70;;
64915;SDS011;51427;-27.442;153.014;2023-04-16T13:53:33;5.78;;;2.28;;
64915;SDS011;51427;-27.442;153.014;2023-04-16T13:56:01;4.40;;;2.10;;
64915;SDS011;51427;-27.442;153.014;2023-04-16T13:58:32;3.58;;;1.60;;
64915;SDS011;51427;-27.442;153.014;2023-04-16T14:01:00;3.85;;;1.50;;
64915;SDS011;51427;-27.442;153.014;2023-04-16T14:03:28;4.15;;;1.25;;
64915;SDS011;51427;-27.442;153.014;2023-04-16T14:05:57;2.95;;;1.92;;
64915;SDS011;51427;-27.442;153.014;2023-04-16T14:08:24;3.13;;;1.95;;
64915;SDS011;51427;-27.442;153.014;2023-04-16T14:10:52;5.47;;;1.75;;
64915;SDS011;51427;-27.442;153.014;2023-04-16T14:13:20;4.72;;;1.48;;
64915;SDS011;51427;-27.442;153.014;2023-04-16T14:15:47;2.75;;;1.25;;
64915;SDS011;51427;-27.442;153.014;2023-04-16T14:18:15;2.00;;;1.15;;
64915;SDS011;51427;-27.442;153.014;2023-04-16T14:20:46;3.00;;;1.42;;
64915;SDS011;51427;-27.442;153.014;2023-04-16T14:23:16;6.32;;;1.70;;
64915;SDS011;51427;-27.442;153.014;2023-04-16T14:25:44;2.40;;;1.83;;
64915;SDS011;51427;-27.442;153.014;2023-04-16T14:28:12;6.18;;;2.58;;
64915;SDS011;51427;-27.442;153.014;2023-04-16T14:30:48;7.03;;;2.22;;
64915;SDS011;51427;-27.442;153.014;2023-04-16T14:33:16;4.65;;;2.22;;
64915;SDS011;51427;-27.442;153.014;2023-04-16T14:35:44;4.88;;;2.20;;
64915;SDS011;51427;-27.442;153.014;2023-04-16T14:38:11;5.05;;;1.60;;
64915;SDS011;51427;-27.442;153.014;2023-04-16T14:40:39;3.72;;;1.83;;